Terminal Aerodrome Forecast
Issued by NWS

Home | Current Version | Previous Version | Text Only | Print | Product List | Glossary On
Versions: 1 2 3 4 5 6 7 8 9 10 11 12 13 14 15 16 17 18 19 20 21 22 23 24 25 26 27 28 29
000
FTUS43 KLSX 261335 AAB
TAFUIN
TAF AMD
KUIN 261335Z 2614/2712 06006KT P6SM VCTS SCT007 BKN035CB
      TEMPO 2614/2616 3SM -TSRA BKN025CB
     FM261600 07006KT P6SM BKN030
     FM261900 11007KT P6SM VCTS BKN040CB
     FM270100 12005KT P6SM SCT050 BKN120
     FM270900 18006KT P6SM BKN120=

USA.gov is the U.S. government's official web portal to all federal, state and local government web resources and services.